sensor_id;sensor_type;location;lat;lon;timestamp;temperature;humidity
3998;DHT22;61314;53.444;9.902;2022-09-01T08:35:38;17.20;99.90
3998;DHT22;61314;53.444;9.902;2022-09-01T08:38:05;17.60;99.90
3998;DHT22;61314;53.444;9.902;2022-09-01T08:40:32;17.50;99.90
3998;DHT22;61314;53.444;9.902;2022-09-01T08:45:57;18.10;99.90
3998;DHT22;61314;53.444;9.902;2022-09-01T08:48:45;18.10;99.90
3998;DHT22;61314;53.444;9.902;2022-09-01T08:51:40;18.40;99.90
3998;DHT22;61314;53.444;9.902;2022-09-01T08:54:31;18.70;99.90
3998;DHT22;61314;53.444;9.902;2022-09-01T08:57:05;18.70;99.90
3998;DHT22;61314;53.444;9.902;2022-09-01T08:59:34;19.00;99.90
3998;DHT22;61314;53.444;9.902;2022-09-01T09:10:02;19.60;99.90
3998;DHT22;61314;53.444;9.902;2022-09-01T09:15:36;19.80;99.90
3998;DHT22;61314;53.444;9.902;2022-09-01T09:18:32;20.20;99.90
3998;DHT22;61314;53.444;9.902;2022-09-01T09:23:44;20.60;99.90
3998;DHT22;61314;53.444;9.902;2022-09-01T09:26:11;21.00;99.90
3998;DHT22;61314;53.444;9.902;2022-09-01T09:28:42;21.00;99.90
3998;DHT22;61314;53.444;9.902;2022-09-01T09:31:38;21.20;99.90
3998;DHT22;61314;53.444;9.902;2022-09-01T09:37:19;21.20;99.90
3998;DHT22;61314;53.444;9.902;2022-09-01T09:40:10;21.20;99.90
3998;DHT22;61314;53.444;9.902;2022-09-01T09:45:20;21.50;99.90
3998;DHT22;61314;53.444;9.902;2022-09-01T09:47:47;21.80;99.90
3998;DHT22;61314;53.444;9.902;2022-09-01T09:55:22;22.10;98.70
3998;DHT22;61314;53.444;9.902;2022-09-01T09:57:52;22.20;99.10
3998;DHT22;61314;53.444;9.902;2022-09-01T10:07:55;22.50;98.30
3998;DHT22;61314;53.444;9.902;2022-09-01T10:10:35;22.90;99.90
3998;DHT22;61314;53.444;9.902;2022-09-01T10:13:04;22.60;99.90
3998;DHT22;61314;53.444;9.902;2022-09-01T10:15:34;22.90;99.90
3998;DHT22;61314;53.444;9.902;2022-09-01T10:23:28;22.70;91.80
3998;DHT22;61314;53.444;9.902;2022-09-01T10:26:02;23.10;93.00
3998;DHT22;61314;53.444;9.902;2022-09-01T10:28:39;23.00;90.90
3998;DHT22;61314;53.444;9.902;2022-09-01T10:31:17;23.40;91.60
3998;DHT22;61314;53.444;9.902;2022-09-01T10:33:44;23.40;90.30
3998;DHT22;61314;53.444;9.902;2022-09-01T10:36:12;23.50;89.10
3998;DHT22;61314;53.444;9.902;2022-09-01T10:38:41;23.50;90.20
3998;DHT22;61314;53.444;9.902;2022-09-01T10:44:19;23.80;90.10
3998;DHT22;61314;53.444;9.902;2022-09-01T10:51:55;24.20;86.00
3998;DHT22;61314;53.444;9.902;2022-09-01T10:57:49;24.10;86.80
3998;DHT22;61314;53.444;9.902;2022-09-01T11:08:45;24.70;83.00
3998;DHT22;61314;53.444;9.902;2022-09-01T11:11:30;24.70;84.20
3998;DHT22;61314;53.444;9.902;2022-09-01T11:14:00;24.40;83.40
3998;DHT22;61314;53.444;9.902;2022-09-01T11:25:31;25.20;78.90
3998;DHT22;61314;53.444;9.902;2022-09-01T11:30:44;25.60;91.80
3998;DHT22;61314;53.444;9.902;2022-09-01T11:36:17;25.30;76.00
3998;DHT22;61314;53.444;9.902;2022-09-01T11:38:49;25.30;77.10
3998;DHT22;61314;53.444;9.902;2022-09-01T11:41:27;25.00;76.80
3998;DHT22;61314;53.444;9.902;2022-09-01T11:44:01;24.80;75.10
3998;DHT22;61314;53.444;9.902;2022-09-01T11:46:31;24.90;77.10
3998;DHT22;61314;53.444;9.902;2022-09-01T11:49:02;24.90;76.40
3998;DHT22;61314;53.444;9.902;2022-09-01T11:51:43;24.60;77.40
3998;DHT22;61314;53.444;9.902;2022-09-01T11:54:11;24.80;79.40
3998;DHT22;61314;53.444;9.902;2022-09-01T11:56:38;24.70;76.00
3998;DHT22;61314;53.444;9.902;2022-09-01T11:59:04;24.80;76.60
3998;DHT22;61314;53.444;9.902;2022-09-01T12:01:37;24.70;73.90
3998;DHT22;61314;53.444;9.902;2022-09-01T12:04:22;24.70;73.90
3998;DHT22;61314;53.444;9.902;2022-09-01T12:06:53;24.50;74.40
3998;DHT22;61314;53.444;9.902;2022-09-01T12:09:20;24.40;77.70
3998;DHT22;61314;53.444;9.902;2022-09-01T12:11:47;24.20;75.00
3998;DHT22;61314;53.444;9.902;2022-09-01T12:14:20;24.20;75.40
3998;DHT22;61314;53.444;9.902;2022-09-01T12:16:57;24.20;75.20
3998;DHT22;61314;53.444;9.902;2022-09-01T12:19:29;24.30;75.90
3998;DHT22;61314;53.444;9.902;2022-09-01T12:22:02;24.20;76.10
3998;DHT22;61314;53.444;9.902;2022-09-01T12:24:35;24.20;76.80
3998;DHT22;61314;53.444;9.902;2022-09-01T12:27:02;24.20;77.00
3998;DHT22;61314;53.444;9.902;2022-09-01T12:29:30;24.20;76.80
3998;DHT22;61314;53.444;9.902;2022-09-01T12:32:01;24.20;80.00
3998;DHT22;61314;53.444;9.902;2022-09-01T12:34:37;23.90;81.10
3998;DHT22;61314;53.444;9.902;2022-09-01T12:39:36;23.70;84.90
3998;DHT22;61314;53.444;9.902;2022-09-01T12:44:50;23.50;87.10
3998;DHT22;61314;53.444;9.902;2022-09-01T12:52:31;23.20;88.40
3998;DHT22;61314;53.444;9.902;2022-09-01T12:57:37;23.10;87.60
3998;DHT22;61314;53.444;9.902;2022-09-01T13:02:39;23.20;90.20
3998;DHT22;61314;53.444;9.902;2022-09-01T13:05:26;23.40;88.70
3998;DHT22;61314;53.444;9.902;2022-09-01T13:08:19;23.40;87.20
3998;DHT22;61314;53.444;9.902;2022-09-01T13:10:50;23.50;90.00
3998;DHT22;61314;53.444;9.902;2022-09-01T13:13:19;23.70;85.70
3998;DHT22;61314;53.444;9.902;2022-09-01T13:15:49;23.70;80.50
3998;DHT22;61314;53.444;9.902;2022-09-01T13:18:17;23.70;80.30
3998;DHT22;61314;53.444;9.902;2022-09-01T13:20:44;23.60;80.50
3998;DHT22;61314;53.444;9.902;2022-09-01T13:23:11;23.70;79.30
3998;DHT22;61314;53.444;9.902;2022-09-01T13:25:39;23.60;82.00
3998;DHT22;61314;53.444;9.902;2022-09-01T13:28:06;23.60;78.40
3998;DHT22;61314;53.444;9.902;2022-09-01T13:30:34;23.60;77.30
3998;DHT22;61314;53.444;9.902;2022-09-01T13:33:01;23.60;80.10
3998;DHT22;61314;53.444;9.902;2022-09-01T13:35:48;23.80;80.20
3998;DHT22;61314;53.444;9.902;2022-09-01T13:38:15;23.80;80.10
3998;DHT22;61314;53.444;9.902;2022-09-01T13:40:44;23.70;79.80
3998;DHT22;61314;53.444;9.902;2022-09-01T13:43:17;23.60;81.50
3998;DHT22;61314;53.444;9.902;2022-09-01T13:45:45;23.60;83.70
3998;DHT22;61314;53.444;9.902;2022-09-01T13:48:13;23.40;82.90
3998;DHT22;61314;53.444;9.902;2022-09-01T13:50:43;23.50;83.50
3998;DHT22;61314;53.444;9.902;2022-09-01T13:53:30;23.40;83.40
3998;DHT22;61314;53.444;9.902;2022-09-01T13:55:57;23.50;83.80
3998;DHT22;61314;53.444;9.902;2022-09-01T13:58:24;23.30;82.90
3998;DHT22;61314;53.444;9.902;2022-09-01T14:00:50;23.40;84.10
3998;DHT22;61314;53.444;9.902;2022-09-01T14:03:21;23.20;83.30
3998;DHT22;61314;53.444;9.902;2022-09-01T14:05:48;23.00;83.70
3998;DHT22;61314;53.444;9.902;2022-09-01T14:08:18;22.90;90.10
3998;DHT22;61314;53.444;9.902;2022-09-01T14:10:48;22.90;93.90
3998;DHT22;61314;53.444;9.902;2022-09-01T14:13:17;22.70;81.60
3998;DHT22;61314;53.444;9.902;2022-09-01T14:15:44;22.70;83.30
3998;DHT22;61314;53.444;9.902;2022-09-01T14:18:12;22.80;84.10
3998;DHT22;61314;53.444;9.902;2022-09-01T14:20:43;22.80;83.50
3998;DHT22;61314;53.444;9.902;2022-09-01T14:23:10;22.90;83.60
3998;DHT22;61314;53.444;9.902;2022-09-01T14:25:42;23.00;83.90
3998;DHT22;61314;53.444;9.902;2022-09-01T14:28:10;23.00;84.00
3998;DHT22;61314;53.444;9.902;2022-09-01T14:30:39;23.10;84.90
3998;DHT22;61314;53.444;9.902;2022-09-01T14:33:08;23.20;83.20
3998;DHT22;61314;53.444;9.902;2022-09-01T14:35:38;23.30;82.00
3998;DHT22;61314;53.444;9.902;2022-09-01T14:38:05;23.50;84.50
3998;DHT22;61314;53.444;9.902;2022-09-01T14:40:35;23.50;79.20
3998;DHT22;61314;53.444;9.902;2022-09-01T14:43:08;23.50;80.10
3998;DHT22;61314;53.444;9.902;2022-09-01T14:45:35;23.40;81.90
3998;DHT22;61314;53.444;9.902;2022-09-01T14:48:03;23.50;82.00
3998;DHT22;61314;53.444;9.902;2022-09-01T14:50:31;23.30;81.20
3998;DHT22;61314;53.444;9.902;2022-09-01T14:53:00;23.30;82.30
3998;DHT22;61314;53.444;9.902;2022-09-01T14:55:28;23.20;81.80
3998;DHT22;61314;53.444;9.902;2022-09-01T14:57:56;23.20;82.70
3998;DHT22;61314;53.444;9.902;2022-09-01T15:00:23;23.10;83.80
3998;DHT22;61314;53.444;9.902;2022-09-01T15:02:51;23.00;84.20
3998;DHT22;61314;53.444;9.902;2022-09-01T15:05:18;23.00;84.80
3998;DHT22;61314;53.444;9.902;2022-09-01T15:07:46;22.90;85.90
3998;DHT22;61314;53.444;9.902;2022-09-01T15:10:15;22.90;85.70
3998;DHT22;61314;53.444;9.902;2022-09-01T15:12:55;22.50;83.30
3998;DHT22;61314;53.444;9.902;2022-09-01T15:15:23;22.40;84.10
3998;DHT22;61314;53.444;9.902;2022-09-01T15:17:49;22.40;85.10
3998;DHT22;61314;53.444;9.902;2022-09-01T15:20:16;22.40;91.00
3998;DHT22;61314;53.444;9.902;2022-09-01T15:25:29;22.00;85.50
3998;DHT22;61314;53.444;9.902;2022-09-01T15:27:56;22.00;86.40
3998;DHT22;61314;53.444;9.902;2022-09-01T15:32:52;22.00;87.60
3998;DHT22;61314;53.444;9.902;2022-09-01T15:35:20;21.90;88.20
3998;DHT22;61314;53.444;9.902;2022-09-01T15:37:48;22.00;89.80
3998;DHT22;61314;53.444;9.902;2022-09-01T15:42:43;21.90;89.60
3998;DHT22;61314;53.444;9.902;2022-09-01T15:45:13;21.80;89.40
3998;DHT22;61314;53.444;9.902;2022-09-01T15:47:41;21.70;90.00
3998;DHT22;61314;53.444;9.902;2022-09-01T15:50:13;21.80;90.60
3998;DHT22;61314;53.444;9.902;2022-09-01T15:57:51;21.60;91.00
3998;DHT22;61314;53.444;9.902;2022-09-01T16:05:14;21.50;91.30
3998;DHT22;61314;53.444;9.902;2022-09-01T16:07:41;21.50;91.80
3998;DHT22;61314;53.444;9.902;2022-09-01T16:10:09;21.40;91.90
3998;DHT22;61314;53.444;9.902;2022-09-01T16:12:40;21.20;91.70
3998;DHT22;61314;53.444;9.902;2022-09-01T16:15:14;21.20;92.20
3998;DHT22;61314;53.444;9.902;2022-09-01T16:20:24;21.10;92.30
3998;DHT22;61314;53.444;9.902;2022-09-01T16:23:05;21.10;92.90
3998;DHT22;61314;53.444;9.902;2022-09-01T16:28:04;20.90;92.60
3998;DHT22;61314;53.444;9.902;2022-09-01T16:33:02;20.80;93.60
3998;DHT22;61314;53.444;9.902;2022-09-01T16:44:34;20.60;95.00
3998;DHT22;61314;53.444;9.902;2022-09-01T16:47:21;20.50;98.90
3998;DHT22;61314;53.444;9.902;2022-09-01T16:50:18;20.30;94.80
3998;DHT22;61314;53.444;9.902;2022-09-01T16:56:01;20.10;95.50
3998;DHT22;61314;53.444;9.902;2022-09-01T16:58:41;20.20;99.90
3998;DHT22;61314;53.444;9.902;2022-09-01T17:05:04;19.90;96.00
3998;DHT22;61314;53.444;9.902;2022-09-01T17:07:27;19.70;96.30
3998;DHT22;61314;53.444;9.902;2022-09-01T17:10:03;19.70;95.70
3998;DHT22;61314;53.444;9.902;2022-09-01T17:13:11;19.70;96.20
3998;DHT22;61314;53.444;9.902;2022-09-01T17:15:36;19.60;96.80
3998;DHT22;61314;53.444;9.902;2022-09-01T17:20:53;19.50;97.30
3998;DHT22;61314;53.444;9.902;2022-09-01T17:23:26;19.40;97.40
3998;DHT22;61314;53.444;9.902;2022-09-01T17:26:03;19.30;97.50
3998;DHT22;61314;53.444;9.902;2022-09-01T17:31:40;19.20;98.00
3998;DHT22;61314;53.444;9.902;2022-09-01T17:34:23;19.10;98.20
3998;DHT22;61314;53.444;9.902;2022-09-01T17:39:39;19.10;99.60
3998;DHT22;61314;53.444;9.902;2022-09-01T17:42:31;19.00;98.70
3998;DHT22;61314;53.444;9.902;2022-09-01T17:45:49;18.90;97.60
3998;DHT22;61314;53.444;9.902;2022-09-01T17:48:25;18.90;98.40
3998;DHT22;61314;53.444;9.902;2022-09-01T17:54:15;18.70;98.40
3998;DHT22;61314;53.444;9.902;2022-09-01T18:10:06;18.20;99.20
3998;DHT22;61314;53.444;9.902;2022-09-01T18:12:38;18.20;99.50
3998;DHT22;61314;53.444;9.902;2022-09-01T18:17:45;18.50;99.90
3998;DHT22;61314;53.444;9.902;2022-09-01T18:20:20;18.00;99.60
3998;DHT22;61314;53.444;9.902;2022-09-01T18:22:59;17.90;99.40
3998;DHT22;61314;53.444;9.902;2022-09-01T18:25:38;17.80;99.60
3998;DHT22;61314;53.444;9.902;2022-09-01T18:28:05;17.80;99.90
3998;DHT22;61314;53.444;9.902;2022-09-01T18:38:56;17.50;99.90
3998;DHT22;61314;53.444;9.902;2022-09-01T18:44:36;17.40;99.90
3998;DHT22;61314;53.444;9.902;2022-09-01T18:49:48;17.20;99.90
3998;DHT22;61314;53.444;9.902;2022-09-01T18:55:27;17.20;99.90
3998;DHT22;61314;53.444;9.902;2022-09-01T18:58:03;17.10;99.90
3998;DHT22;61314;53.444;9.902;2022-09-01T19:00:55;17.10;99.90
3998;DHT22;61314;53.444;9.902;2022-09-01T19:52:12;16.00;99.90
3998;DHT22;61314;53.444;9.902;2022-09-01T19:54:55;16.00;99.90
3998;DHT22;61314;53.444;9.902;2022-09-01T19:57:38;16.00;99.90
3998;DHT22;61314;53.444;9.902;2022-09-01T20:02:53;15.80;99.90
3998;DHT22;61314;53.444;9.902;2022-09-01T20:05:29;15.80;99.90
3998;DHT22;61314;53.444;9.902;2022-09-01T20:08:24;15.70;99.90
3998;DHT22;61314;53.444;9.902;2022-09-01T20:10:59;15.70;99.90
3998;DHT22;61314;53.444;9.902;2022-09-01T20:14:09;15.60;99.90
3998;DHT22;61314;53.444;9.902;2022-09-01T20:19:38;15.60;99.90
3998;DHT22;61314;53.444;9.902;2022-09-01T20:27:32;15.40;99.90
3998;DHT22;61314;53.444;9.902;2022-09-01T20:30:24;15.30;99.90
3998;DHT22;61314;53.444;9.902;2022-09-01T20:41:29;15.20;99.90
3998;DHT22;61314;53.444;9.902;2022-09-01T20:44:09;15.20;99.90
3998;DHT22;61314;53.444;9.902;2022-09-01T20:54:31;15.00;99.90
3998;DHT22;61314;53.444;9.902;2022-09-01T21:36:08;14.60;99.90
3998;DHT22;61314;53.444;9.902;2022-09-01T21:38:34;14.50;99.90
3998;DHT22;61314;53.444;9.902;2022-09-01T21:43:33;14.50;99.90
3998;DHT22;61314;53.444;9.902;2022-09-01T21:46:01;14.40;99.90
3998;DHT22;61314;53.444;9.902;2022-09-01T21:48:29;14.40;99.90
3998;DHT22;61314;53.444;9.902;2022-09-01T21:53:23;14.30;99.90
3998;DHT22;61314;53.444;9.902;2022-09-01T21:55:49;14.30;99.90
3998;DHT22;61314;53.444;9.902;2022-09-01T21:58:16;14.20;99.90
3998;DHT22;61314;53.444;9.902;2022-09-01T22:00:43;14.30;99.90
3998;DHT22;61314;53.444;9.902;2022-09-01T22:03:10;14.30;99.90
3998;DHT22;61314;53.444;9.902;2022-09-01T22:15:45;14.00;99.90
3998;DHT22;61314;53.444;9.902;2022-09-01T22:18:14;14.00;99.90
3998;DHT22;61314;53.444;9.902;2022-09-01T22:20:41;14.00;99.90
3998;DHT22;61314;53.444;9.902;2022-09-01T22:23:08;14.00;99.90
3998;DHT22;61314;53.444;9.902;2022-09-01T22:28:06;13.90;99.90
3998;DHT22;61314;53.444;9.902;2022-09-01T22:30:33;13.70;99.90
3998;DHT22;61314;53.444;9.902;2022-09-01T22:33:01;13.90;99.90
3998;DHT22;61314;53.444;9.902;2022-09-01T22:40:22;13.80;99.90
3998;DHT22;61314;53.444;9.902;2022-09-01T22:45:17;13.80;99.90
3998;DHT22;61314;53.444;9.902;2022-09-01T22:47:44;13.80;99.90
3998;DHT22;61314;53.444;9.902;2022-09-01T22:50:11;13.60;99.90
3998;DHT22;61314;53.444;9.902;2022-09-01T22:52:38;13.60;99.90
3998;DHT22;61314;53.444;9.902;2022-09-01T22:55:06;13.60;99.90
3998;DHT22;61314;53.444;9.902;2022-09-01T22:57:35;13.60;99.90
3998;DHT22;61314;53.444;9.902;2022-09-01T23:00:05;13.50;99.90
3998;DHT22;61314;53.444;9.902;2022-09-01T23:02:34;13.50;99.90
3998;DHT22;61314;53.444;9.902;2022-09-01T23:05:01;13.50;99.90
3998;DHT22;61314;53.444;9.902;2022-09-01T23:07:33;13.50;99.90
3998;DHT22;61314;53.444;9.902;2022-09-01T23:10:00;13.60;99.90
3998;DHT22;61314;53.444;9.902;2022-09-01T23:12:26;14.10;99.90
3998;DHT22;61314;53.444;9.902;2022-09-01T23:19:47;13.50;99.90
3998;DHT22;61314;53.444;9.902;2022-09-01T23:22:14;13.30;99.90
